sensor_id;sensor_type;location;lat;lon;timestamp;temperature;humidity
40732;DHT22;26420;52.256;9.096;2022-09-21T00:04:49;8.30;99.90
40732;DHT22;26420;52.256;9.096;2022-09-21T00:09:51;8.20;99.90
40732;DHT22;26420;52.256;9.096;2022-09-21T00:14:52;8.30;99.90
40732;DHT22;26420;52.256;9.096;2022-09-21T00:19:54;8.40;99.90
40732;DHT22;26420;52.256;9.096;2022-09-21T00:24:56;8.40;99.90
40732;DHT22;26420;52.256;9.096;2022-09-21T00:29:58;8.40;99.90
40732;DHT22;26420;52.256;9.096;2022-09-21T00:35:04;8.50;99.90
40732;DHT22;26420;52.256;9.096;2022-09-21T00:40:08;8.40;99.90
40732;DHT22;26420;52.256;9.096;2022-09-21T00:45:11;8.30;99.90
40732;DHT22;26420;52.256;9.096;2022-09-21T00:50:23;8.30;99.90
40732;DHT22;26420;52.256;9.096;2022-09-21T00:55:31;8.30;99.90
40732;DHT22;26420;52.256;9.096;2022-09-21T01:00:35;8.30;99.90
40732;DHT22;26420;52.256;9.096;2022-09-21T01:05:37;8.20;99.90
40732;DHT22;26420;52.256;9.096;2022-09-21T01:16:01;8.20;99.90
40732;DHT22;26420;52.256;9.096;2022-09-21T01:21:24;8.20;99.90
40732;DHT22;26420;52.256;9.096;2022-09-21T01:32:10;8.10;99.90
40732;DHT22;26420;52.256;9.096;2022-09-21T01:37:19;8.20;99.90
40732;DHT22;26420;52.256;9.096;2022-09-21T01:42:24;8.10;99.90
40732;DHT22;26420;52.256;9.096;2022-09-21T01:47:28;8.10;99.90
40732;DHT22;26420;52.256;9.096;2022-09-21T01:52:38;8.00;99.90
40732;DHT22;26420;52.256;9.096;2022-09-21T02:02:55;7.80;99.90
40732;DHT22;26420;52.256;9.096;2022-09-21T02:07:59;7.90;99.90
40732;DHT22;26420;52.256;9.096;2022-09-21T02:13:03;7.80;99.90
40732;DHT22;26420;52.256;9.096;2022-09-21T02:18:27;7.80;99.90
40732;DHT22;26420;52.256;9.096;2022-09-21T02:23:45;8.00;99.90
40732;DHT22;26420;52.256;9.096;2022-09-21T02:29:00;8.00;99.90
40732;DHT22;26420;52.256;9.096;2022-09-21T02:34:17;7.90;99.90
40732;DHT22;26420;52.256;9.096;2022-09-21T02:39:43;7.80;99.90
40732;DHT22;26420;52.256;9.096;2022-09-21T02:44:55;7.80;99.90
40732;DHT22;26420;52.256;9.096;2022-09-21T02:50:03;7.70;99.90
40732;DHT22;26420;52.256;9.096;2022-09-21T02:55:07;7.70;99.90
40732;DHT22;26420;52.256;9.096;2022-09-21T03:00:10;7.80;99.90
40732;DHT22;26420;52.256;9.096;2022-09-21T03:05:12;7.90;99.90
40732;DHT22;26420;52.256;9.096;2022-09-21T03:10:15;7.80;99.90
40732;DHT22;26420;52.256;9.096;2022-09-21T03:15:16;7.60;99.90
40732;DHT22;26420;52.256;9.096;2022-09-21T03:20:18;7.80;99.90
40732;DHT22;26420;52.256;9.096;2022-09-21T03:25:20;7.60;99.90
40732;DHT22;26420;52.256;9.096;2022-09-21T03:30:23;7.60;99.90
40732;DHT22;26420;52.256;9.096;2022-09-21T03:35:24;7.70;99.90
40732;DHT22;26420;52.256;9.096;2022-09-21T03:40:27;7.70;99.90
40732;DHT22;26420;52.256;9.096;2022-09-21T03:45:29;7.60;99.90
40732;DHT22;26420;52.256;9.096;2022-09-21T03:50:30;7.40;99.90
40732;DHT22;26420;52.256;9.096;2022-09-21T03:55:32;7.50;99.90
40732;DHT22;26420;52.256;9.096;2022-09-21T04:00:34;7.70;99.90
40732;DHT22;26420;52.256;9.096;2022-09-21T04:05:37;7.70;99.90
40732;DHT22;26420;52.256;9.096;2022-09-21T04:10:39;7.60;99.90
40732;DHT22;26420;52.256;9.096;2022-09-21T04:15:43;7.50;99.90
40732;DHT22;26420;52.256;9.096;2022-09-21T04:20:44;7.50;99.90
40732;DHT22;26420;52.256;9.096;2022-09-21T04:25:48;7.60;99.90
40732;DHT22;26420;52.256;9.096;2022-09-21T04:30:52;7.60;99.90
40732;DHT22;26420;52.256;9.096;2022-09-21T04:35:55;7.60;99.90
40732;DHT22;26420;52.256;9.096;2022-09-21T04:40:57;7.40;99.90
40732;DHT22;26420;52.256;9.096;2022-09-21T04:46:04;7.40;99.90
40732;DHT22;26420;52.256;9.096;2022-09-21T04:51:07;7.40;99.90
40732;DHT22;26420;52.256;9.096;2022-09-21T04:56:10;7.40;99.90
40732;DHT22;26420;52.256;9.096;2022-09-21T05:01:13;7.40;99.90
40732;DHT22;26420;52.256;9.096;2022-09-21T05:06:15;7.40;99.90
40732;DHT22;26420;52.256;9.096;2022-09-21T05:11:17;7.40;99.90
40732;DHT22;26420;52.256;9.096;2022-09-21T05:16:19;7.50;99.90
40732;DHT22;26420;52.256;9.096;2022-09-21T05:21:21;7.50;99.90
40732;DHT22;26420;52.256;9.096;2022-09-21T05:26:24;7.50;99.90
40732;DHT22;26420;52.256;9.096;2022-09-21T05:31:48;7.60;99.90
40732;DHT22;26420;52.256;9.096;2022-09-21T05:41:56;7.60;99.90
40732;DHT22;26420;52.256;9.096;2022-09-21T05:52:42;7.80;99.90
40732;DHT22;26420;52.256;9.096;2022-09-21T06:03:28;8.20;99.90
40732;DHT22;26420;52.256;9.096;2022-09-21T06:08:30;8.40;99.90
40732;DHT22;26420;52.256;9.096;2022-09-21T06:13:31;8.50;99.90
40732;DHT22;26420;52.256;9.096;2022-09-21T06:18:40;8.50;99.90
40732;DHT22;26420;52.256;9.096;2022-09-21T06:23:42;8.70;99.90
40732;DHT22;26420;52.256;9.096;2022-09-21T06:28:44;8.80;99.90
40732;DHT22;26420;52.256;9.096;2022-09-21T06:33:45;8.90;99.90
40732;DHT22;26420;52.256;9.096;2022-09-21T06:38:48;8.90;99.90
40732;DHT22;26420;52.256;9.096;2022-09-21T06:43:53;9.10;99.90
40732;DHT22;26420;52.256;9.096;2022-09-21T06:48:56;9.20;99.90
40732;DHT22;26420;52.256;9.096;2022-09-21T06:53:58;9.30;99.90
40732;DHT22;26420;52.256;9.096;2022-09-21T06:58:59;9.50;99.90
40732;DHT22;26420;52.256;9.096;2022-09-21T07:04:01;9.60;99.90
40732;DHT22;26420;52.256;9.096;2022-09-21T07:09:03;9.70;99.90
40732;DHT22;26420;52.256;9.096;2022-09-21T07:14:24;9.90;99.90
40732;DHT22;26420;52.256;9.096;2022-09-21T07:19:26;10.00;99.90
40732;DHT22;26420;52.256;9.096;2022-09-21T07:24:27;10.20;99.90
40732;DHT22;26420;52.256;9.096;2022-09-21T07:29:29;10.20;99.90
40732;DHT22;26420;52.256;9.096;2022-09-21T07:34:35;10.40;99.90
40732;DHT22;26420;52.256;9.096;2022-09-21T07:39:37;10.60;99.90
40732;DHT22;26420;52.256;9.096;2022-09-21T07:44:39;11.00;99.90
40732;DHT22;26420;52.256;9.096;2022-09-21T07:49:41;11.10;99.90
40732;DHT22;26420;52.256;9.096;2022-09-21T07:54:43;11.30;99.90
40732;DHT22;26420;52.256;9.096;2022-09-21T07:59:45;11.40;99.90
40732;DHT22;26420;52.256;9.096;2022-09-21T08:04:47;11.50;99.90
40732;DHT22;26420;52.256;9.096;2022-09-21T08:09:48;11.70;99.90
40732;DHT22;26420;52.256;9.096;2022-09-21T08:14:51;11.80;99.90
40732;DHT22;26420;52.256;9.096;2022-09-21T08:19:53;12.00;99.90
40732;DHT22;26420;52.256;9.096;2022-09-21T08:24:55;12.20;99.90
40732;DHT22;26420;52.256;9.096;2022-09-21T08:29:57;12.30;99.90
40732;DHT22;26420;52.256;9.096;2022-09-21T08:34:59;12.50;99.90
40732;DHT22;26420;52.256;9.096;2022-09-21T08:40:04;12.70;99.90
40732;DHT22;26420;52.256;9.096;2022-09-21T08:45:15;12.80;99.90
40732;DHT22;26420;52.256;9.096;2022-09-21T08:55:22;13.00;99.90
40732;DHT22;26420;52.256;9.096;2022-09-21T09:00:25;13.30;99.90
40732;DHT22;26420;52.256;9.096;2022-09-21T09:06:27;13.40;99.90
40732;DHT22;26420;52.256;9.096;2022-09-21T09:11:20;13.50;99.90
40732;DHT22;26420;52.256;9.096;2022-09-21T09:16:39;13.70;99.90
40732;DHT22;26420;52.256;9.096;2022-09-21T09:21:44;13.80;99.90
40732;DHT22;26420;52.256;9.096;2022-09-21T09:31:58;14.10;99.90
40732;DHT22;26420;52.256;9.096;2022-09-21T09:37:10;14.20;99.90
40732;DHT22;26420;52.256;9.096;2022-09-21T09:47:51;14.40;99.90
40732;DHT22;26420;52.256;9.096;2022-09-21T09:53:10;14.50;99.90
40732;DHT22;26420;52.256;9.096;2022-09-21T09:58:19;14.50;99.90
40732;DHT22;26420;52.256;9.096;2022-09-21T10:03:24;14.60;99.90
40732;DHT22;26420;52.256;9.096;2022-09-21T10:08:28;14.90;99.90
40732;DHT22;26420;52.256;9.096;2022-09-21T10:13:34;14.70;99.90
40732;DHT22;26420;52.256;9.096;2022-09-21T10:18:48;14.60;99.90
40732;DHT22;26420;52.256;9.096;2022-09-21T10:23:59;14.60;99.90
40732;DHT22;26420;52.256;9.096;2022-09-21T10:34:17;14.70;99.90
40732;DHT22;26420;52.256;9.096;2022-09-21T10:39:27;14.90;99.90
40732;DHT22;26420;52.256;9.096;2022-09-21T10:44:37;14.90;99.90
40732;DHT22;26420;52.256;9.096;2022-09-21T10:49:44;15.00;99.90
40732;DHT22;26420;52.256;9.096;2022-09-21T10:54:49;14.90;99.90
40732;DHT22;26420;52.256;9.096;2022-09-21T10:59:52;15.00;99.90
40732;DHT22;26420;52.256;9.096;2022-09-21T11:05:24;15.10;99.90
40732;DHT22;26420;52.256;9.096;2022-09-21T11:10:42;15.20;99.90
40732;DHT22;26420;52.256;9.096;2022-09-21T11:21:08;15.90;99.90
40732;DHT22;26420;52.256;9.096;2022-09-21T11:26:24;15.70;99.90
40732;DHT22;26420;52.256;9.096;2022-09-21T11:31:36;15.80;99.90
40732;DHT22;26420;52.256;9.096;2022-09-21T11:36:55;17.50;99.90
40732;DHT22;26420;52.256;9.096;2022-09-21T11:47:50;18.00;99.90
40732;DHT22;26420;52.256;9.096;2022-09-21T11:53:13;20.90;99.90
40732;DHT22;26420;52.256;9.096;2022-09-21T12:09:18;19.10;99.90
40732;DHT22;26420;52.256;9.096;2022-09-21T12:19:54;20.10;99.90
40732;DHT22;26420;52.256;9.096;2022-09-21T12:25:13;20.70;99.90
40732;DHT22;26420;52.256;9.096;2022-09-21T12:30:20;20.70;98.50
40732;DHT22;26420;52.256;9.096;2022-09-21T12:40:42;21.70;95.30
40732;DHT22;26420;52.256;9.096;2022-09-21T12:46:05;19.50;97.70
40732;DHT22;26420;52.256;9.096;2022-09-21T12:51:23;20.20;96.20
40732;DHT22;26420;52.256;9.096;2022-09-21T13:01:45;24.70;80.90
40732;DHT22;26420;52.256;9.096;2022-09-21T13:12:24;19.20;92.20
40732;DHT22;26420;52.256;9.096;2022-09-21T13:17:31;18.40;91.70
40732;DHT22;26420;52.256;9.096;2022-09-21T13:22:33;19.20;93.10
40732;DHT22;26420;52.256;9.096;2022-09-21T13:38:33;20.40;91.80
40732;DHT22;26420;52.256;9.096;2022-09-21T13:44:03;20.20;90.30
40732;DHT22;26420;52.256;9.096;2022-09-21T13:54:12;19.50;92.20
40732;DHT22;26420;52.256;9.096;2022-09-21T13:59:20;19.30;91.60
40732;DHT22;26420;52.256;9.096;2022-09-21T14:04:30;18.80;93.00
40732;DHT22;26420;52.256;9.096;2022-09-21T14:09:50;18.50;92.90
40732;DHT22;26420;52.256;9.096;2022-09-21T14:20:32;18.10;93.10
40732;DHT22;26420;52.256;9.096;2022-09-21T14:25:51;17.90;94.30
40732;DHT22;26420;52.256;9.096;2022-09-21T14:30:57;17.70;93.20
40732;DHT22;26420;52.256;9.096;2022-09-21T14:36:04;17.50;95.60
40732;DHT22;26420;52.256;9.096;2022-09-21T14:41:08;17.10;99.90
40732;DHT22;26420;52.256;9.096;2022-09-21T14:51:57;16.60;99.90
40732;DHT22;26420;52.256;9.096;2022-09-21T14:57:52;16.40;99.90
40732;DHT22;26420;52.256;9.096;2022-09-21T15:19:34;16.30;99.90
40732;DHT22;26420;52.256;9.096;2022-09-21T15:24:35;20.30;99.70
40732;DHT22;26420;52.256;9.096;2022-09-21T15:29:38;19.00;99.60
40732;DHT22;26420;52.256;9.096;2022-09-21T15:34:40;18.40;98.80
40732;DHT22;26420;52.256;9.096;2022-09-21T15:39:42;18.20;98.70
40732;DHT22;26420;52.256;9.096;2022-09-21T15:44:45;18.00;95.80
40732;DHT22;26420;52.256;9.096;2022-09-21T15:49:49;17.80;96.30
40732;DHT22;26420;52.256;9.096;2022-09-21T15:54:57;17.60;96.00
40732;DHT22;26420;52.256;9.096;2022-09-21T16:05:13;17.40;96.70
40732;DHT22;26420;52.256;9.096;2022-09-21T16:10:36;17.20;95.90
40732;DHT22;26420;52.256;9.096;2022-09-21T16:15:38;17.00;96.50
40732;DHT22;26420;52.256;9.096;2022-09-21T16:20:45;17.00;97.70
40732;DHT22;26420;52.256;9.096;2022-09-21T16:25:57;16.80;99.90
40732;DHT22;26420;52.256;9.096;2022-09-21T16:31:33;16.70;99.90
40732;DHT22;26420;52.256;9.096;2022-09-21T16:36:38;16.60;99.90
40732;DHT22;26420;52.256;9.096;2022-09-21T16:41:54;16.40;99.90
40732;DHT22;26420;52.256;9.096;2022-09-21T16:47:01;16.00;99.90
40732;DHT22;26420;52.256;9.096;2022-09-21T16:52:03;15.70;99.90
40732;DHT22;26420;52.256;9.096;2022-09-21T16:57:05;15.40;99.90
40732;DHT22;26420;52.256;9.096;2022-09-21T17:02:09;15.00;99.90
40732;DHT22;26420;52.256;9.096;2022-09-21T17:07:12;14.70;99.90
40732;DHT22;26420;52.256;9.096;2022-09-21T17:12:16;14.50;99.90
40732;DHT22;26420;52.256;9.096;2022-09-21T17:17:23;14.10;99.90
40732;DHT22;26420;52.256;9.096;2022-09-21T17:22:25;13.70;99.90
40732;DHT22;26420;52.256;9.096;2022-09-21T17:27:27;13.60;99.90
40732;DHT22;26420;52.256;9.096;2022-09-21T17:32:29;13.30;99.90
40732;DHT22;26420;52.256;9.096;2022-09-21T17:37:35;13.20;99.90
40732;DHT22;26420;52.256;9.096;2022-09-21T17:42:40;13.00;99.90
40732;DHT22;26420;52.256;9.096;2022-09-21T17:47:42;12.90;99.90
40732;DHT22;26420;52.256;9.096;2022-09-21T17:52:44;12.90;99.90
40732;DHT22;26420;52.256;9.096;2022-09-21T18:03:26;12.50;99.90
40732;DHT22;26420;52.256;9.096;2022-09-21T18:08:31;12.20;99.90
40732;DHT22;26420;52.256;9.096;2022-09-21T18:19:03;11.70;99.90
40732;DHT22;26420;52.256;9.096;2022-09-21T18:35:07;11.20;99.90
40732;DHT22;26420;52.256;9.096;2022-09-21T18:40:56;11.20;99.90
40732;DHT22;26420;52.256;9.096;2022-09-21T18:46:03;10.90;99.90
40732;DHT22;26420;52.256;9.096;2022-09-21T18:56:19;11.10;99.90
40732;DHT22;26420;52.256;9.096;2022-09-21T19:01:21;11.20;99.90
40732;DHT22;26420;52.256;9.096;2022-09-21T19:17:05;10.90;99.90
40732;DHT22;26420;52.256;9.096;2022-09-21T19:22:39;10.90;99.90
40732;DHT22;26420;52.256;9.096;2022-09-21T19:27:53;10.80;99.90
40732;DHT22;26420;52.256;9.096;2022-09-21T19:32:58;10.70;99.90
40732;DHT22;26420;52.256;9.096;2022-09-21T19:38:02;10.50;99.90
40732;DHT22;26420;52.256;9.096;2022-09-21T19:43:19;10.60;99.90
40732;DHT22;26420;52.256;9.096;2022-09-21T19:48:29;10.50;99.90
40732;DHT22;26420;52.256;9.096;2022-09-21T19:53:35;10.30;99.90
40732;DHT22;26420;52.256;9.096;2022-09-21T19:58:56;10.10;99.90
40732;DHT22;26420;52.256;9.096;2022-09-21T20:04:22;10.00;99.90
40732;DHT22;26420;52.256;9.096;2022-09-21T20:09:31;10.00;99.90
40732;DHT22;26420;52.256;9.096;2022-09-21T20:14:46;10.00;99.90
40732;DHT22;26420;52.256;9.096;2022-09-21T20:20:00;9.90;99.90
40732;DHT22;26420;52.256;9.096;2022-09-21T20:25:30;9.80;99.90
40732;DHT22;26420;52.256;9.096;2022-09-21T20:30:33;9.70;99.90
40732;DHT22;26420;52.256;9.096;2022-09-21T20:35:36;9.60;99.90
40732;DHT22;26420;52.256;9.096;2022-09-21T20:40:39;9.60;99.90
40732;DHT22;26420;52.256;9.096;2022-09-21T20:45:41;9.70;99.90
40732;DHT22;26420;52.256;9.096;2022-09-21T20:50:49;9.60;99.90
40732;DHT22;26420;52.256;9.096;2022-09-21T20:55:55;9.50;99.90
40732;DHT22;26420;52.256;9.096;2022-09-21T21:01:07;9.40;99.90
40732;DHT22;26420;52.256;9.096;2022-09-21T21:06:11;9.30;99.90
40732;DHT22;26420;52.256;9.096;2022-09-21T21:11:14;9.40;99.90
40732;DHT22;26420;52.256;9.096;2022-09-21T21:16:16;9.30;99.90
40732;DHT22;26420;52.256;9.096;2022-09-21T21:21:18;9.30;99.90
40732;DHT22;26420;52.256;9.096;2022-09-21T21:26:19;9.10;99.90
40732;DHT22;26420;52.256;9.096;2022-09-21T21:31:22;9.00;99.90
40732;DHT22;26420;52.256;9.096;2022-09-21T21:36:25;9.00;99.90
40732;DHT22;26420;52.256;9.096;2022-09-21T21:41:27;8.90;99.90
40732;DHT22;26420;52.256;9.096;2022-09-21T21:46:28;8.80;99.90
40732;DHT22;26420;52.256;9.096;2022-09-21T21:51:30;8.70;99.90
40732;DHT22;26420;52.256;9.096;2022-09-21T21:56:32;8.70;99.90
40732;DHT22;26420;52.256;9.096;2022-09-21T22:01:33;8.70;99.90
40732;DHT22;26420;52.256;9.096;2022-09-21T22:06:36;8.80;99.90
40732;DHT22;26420;52.256;9.096;2022-09-21T22:11:38;8.70;99.90
40732;DHT22;26420;52.256;9.096;2022-09-21T22:16:40;8.60;99.90
40732;DHT22;26420;52.256;9.096;2022-09-21T22:21:43;8.40;99.90
40732;DHT22;26420;52.256;9.096;2022-09-21T22:26:54;8.40;99.90
40732;DHT22;26420;52.256;9.096;2022-09-21T22:31:56;8.40;99.90
40732;DHT22;26420;52.256;9.096;2022-09-21T22:36:58;8.30;99.90
40732;DHT22;26420;52.256;9.096;2022-09-21T22:41:59;8.20;99.90
40732;DHT22;26420;52.256;9.096;2022-09-21T22:47:01;8.20;99.90
40732;DHT22;26420;52.256;9.096;2022-09-21T22:52:03;8.30;99.90
40732;DHT22;26420;52.256;9.096;2022-09-21T22:57:05;8.20;99.90
40732;DHT22;26420;52.256;9.096;2022-09-21T23:02:06;8.10;99.90
40732;DHT22;26420;52.256;9.096;2022-09-21T23:07:12;8.10;99.90
40732;DHT22;26420;52.256;9.096;2022-09-21T23:12:13;8.00;99.90
40732;DHT22;26420;52.256;9.096;2022-09-21T23:17:15;7.90;99.90
40732;DHT22;26420;52.256;9.096;2022-09-21T23:22:17;7.80;99.90
40732;DHT22;26420;52.256;9.096;2022-09-21T23:27:20;8.10;99.90
40732;DHT22;26420;52.256;9.096;2022-09-21T23:32:22;8.00;99.90
40732;DHT22;26420;52.256;9.096;2022-09-21T23:37:24;7.90;99.90
40732;DHT22;26420;52.256;9.096;2022-09-21T23:42:26;7.70;99.90
40732;DHT22;26420;52.256;9.096;2022-09-21T23:47:27;7.80;99.90
40732;DHT22;26420;52.256;9.096;2022-09-21T23:52:29;7.70;99.90
40732;DHT22;26420;52.256;9.096;2022-09-21T23:57:31;7.70;99.90
